Time,TemperatureF,DewpointF,PressureIn,WindDirection,WindDirectionDegrees,WindSpeedMPH,WindSpeedGustMPH,Humidity,HourlyPrecipIn,Conditions,Clouds,dailyrainin,SoftwareType,DateUTC
2013-06-30 00:00:00,71.0,68.0,29.71,SSW,209,3.0,14.0,91,0.00,,,-99.99,,2013-06-30 04:00:00,
2013-06-30 00:33:00,71.0,68.0,29.71,SSW,209,3.0,14.0,91,0.00,,,-99.99,,2013-06-30 04:33:00,
2013-06-30 00:43:00,71.0,68.0,29.71,SSW,209,3.0,14.0,91,0.00,,,-99.99,,2013-06-30 04:43:00,
2013-06-30 00:53:00,71.0,68.0,29.71,SSW,209,3.0,14.0,91,0.00,,,-99.99,,2013-06-30 04:53:00,
2013-06-30 01:00:00,66.0,63.0,29.71,SSW,196,2.0,12.0,91,0.00,,,-99.99,,2013-06-30 05:00:00,
2013-06-30 01:34:00,66.0,63.0,29.71,SSW,196,2.0,12.0,91,0.00,,,-99.99,,2013-06-30 05:34:00,
2013-06-30 01:43:00,66.0,63.0,29.71,SSW,196,2.0,12.0,91,0.00,,,-99.99,,2013-06-30 05:43:00,
2013-06-30 01:53:00,66.0,63.0,29.71,SSW,196,2.0,12.0,91,0.00,,,-99.99,,2013-06-30 05:53:00,
2013-06-30 02:43:00,64.0,63.0,29.74,SSW,194,3.0,10.0,95,0.00,,,-99.99,,2013-06-30 06:43:00,
2013-06-30 02:53:00,64.0,63.0,29.74,SSW,194,3.0,10.0,95,0.00,,,-99.99,,2013-06-30 06:53:00,
2013-06-30 04:00:00,64.0,63.0,29.71,SSE,162,7.0,12.0,96,0.00,,,-99.99,,2013-06-30 08:00:00,
2013-06-30 04:34:00,64.0,63.0,29.71,SSE,162,7.0,12.0,96,0.00,,,-99.99,,2013-06-30 08:34:00,
2013-06-30 04:42:00,64.0,63.0,29.71,SSE,162,7.0,12.0,96,0.00,,,-99.99,,2013-06-30 08:42:00,
2013-06-30 04:53:00,64.0,63.0,29.71,SSE,162,7.0,12.0,96,0.00,,,-99.99,,2013-06-30 08:53:00,
2013-06-30 05:00:00,64.0,64.0,29.74,South,187,3.0,15.0,97,0.00,,,-99.99,,2013-06-30 09:00:00,
2013-06-30 05:34:00,64.0,64.0,29.74,South,187,3.0,15.0,97,0.00,,,-99.99,,2013-06-30 09:34:00,
2013-06-30 05:43:00,64.0,64.0,29.74,South,187,3.0,15.0,97,0.00,,,-99.99,,2013-06-30 09:43:00,
2013-06-30 05:53:00,64.0,64.0,29.74,South,187,3.0,15.0,97,0.00,,,-99.99,,2013-06-30 09:53:00,
2013-06-30 06:00:00,64.0,63.0,29.77,South,178,3.0,11.0,98,0.00,,,-99.99,,2013-06-30 10:00:00,
2013-06-30 06:34:00,64.0,63.0,29.77,South,178,3.0,11.0,98,0.00,,,-99.99,,2013-06-30 10:34:00,
2013-06-30 06:43:00,64.0,63.0,29.77,South,178,3.0,11.0,98,0.00,,,-99.99,,2013-06-30 10:43:00,
2013-06-30 06:53:00,64.0,63.0,29.77,South,178,3.0,11.0,98,0.00,,,-99.99,,2013-06-30 10:53:00,
2013-06-30 07:00:00,66.0,66.0,29.77,South,185,3.0,9.0,97,0.00,,,-99.99,,2013-06-30 11:00:00,
2013-06-30 07:33:00,66.0,66.0,29.77,South,185,3.0,9.0,97,0.00,,,-99.99,,2013-06-30 11:33:00,
2013-06-30 07:43:00,66.0,66.0,29.77,South,185,3.0,9.0,97,0.00,,,-99.99,,2013-06-30 11:43:00,
2013-06-30 07:53:00,66.0,66.0,29.77,South,185,3.0,9.0,97,0.00,,,-99.99,,2013-06-30 11:53:00,
2013-06-30 08:00:00,68.0,66.0,29.80,SSE,162,4.0,9.0,94,0.00,,,-99.99,,2013-06-30 12:00:00,
2013-06-30 08:33:00,68.0,66.0,29.80,SSE,162,4.0,9.0,94,0.00,,,-99.99,,2013-06-30 12:33:00,
2013-06-30 08:43:00,68.0,66.0,29.80,SSE,162,4.0,9.0,94,0.00,,,-99.99,,2013-06-30 12:43:00,
2013-06-30 08:52:00,68.0,66.0,29.80,SSE,162,4.0,9.0,94,0.00,,,-99.99,,2013-06-30 12:52:00,
2013-06-30 09:34:00,71.0,67.0,29.80,SSE,155,10.0,12.0,87,0.00,,,-99.99,,2013-06-30 13:34:00,
2013-06-30 09:44:00,71.0,67.0,29.80,SSE,155,10.0,12.0,87,0.00,,,-99.99,,2013-06-30 13:44:00,
2013-06-30 09:53:00,71.0,67.0,29.80,SSE,155,10.0,12.0,87,0.00,,,-99.99,,2013-06-30 13:53:00,
2013-06-30 10:33:00,72.0,68.0,29.80,SSE,162,8.0,14.0,90,0.00,,,-99.99,,2013-06-30 14:33:00,
2013-06-30 12:34:00,71.0,68.0,29.83,South,178,11.0,14.0,90,0.00,,,-99.99,,2013-06-30 16:34:00,
2013-06-30 12:44:00,71.0,68.0,29.83,South,178,11.0,14.0,90,0.00,,,-99.99,,2013-06-30 16:44:00,
2013-06-30 12:53:00,71.0,68.0,29.83,South,178,11.0,14.0,90,0.00,,,-99.99,,2013-06-30 16:53:00,
2013-06-30 14:00:00,70.0,68.0,29.83,South,171,11.0,15.0,93,0.00,,,-99.99,,2013-06-30 18:00:00,
2013-06-30 14:43:00,70.0,68.0,29.83,South,171,11.0,15.0,93,0.00,,,-99.99,,2013-06-30 18:43:00,
2013-06-30 14:53:00,70.0,68.0,29.83,South,171,11.0,15.0,93,0.00,,,-99.99,,2013-06-30 18:53:00,
2013-06-30 16:00:00,70.0,68.0,29.83,South,181,16.0,18.0,93,0.00,,,-99.99,,2013-06-30 20:00:00,
2013-06-30 16:34:00,70.0,68.0,29.83,South,181,16.0,18.0,93,0.00,,,-99.99,,2013-06-30 20:34:00,
2013-06-30 16:42:00,70.0,68.0,29.83,South,181,16.0,18.0,93,0.00,,,-99.99,,2013-06-30 20:42:00,
2013-06-30 16:52:00,70.0,68.0,29.83,South,181,16.0,18.0,93,0.00,,,-99.99,,2013-06-30 20:52:00,
2013-06-30 17:00:00,68.0,67.0,29.83,South,188,13.0,-999.0,96,-99.99,,,-99.99,,2013-06-30 21:00:00,
2013-06-30 17:43:00,68.0,67.0,29.83,South,188,13.0,-999.0,96,-99.99,,,-99.99,,2013-06-30 21:43:00,
2013-06-30 17:53:00,68.0,67.0,29.83,South,188,13.0,-999.0,96,-99.99,,,-99.99,,2013-06-30 21:53:00,
2013-06-30 18:00:00,68.0,67.0,29.83,SSE,166,10.0,18.0,97,0.01,,,-99.99,,2013-06-30 22:00:00,
2013-06-30 18:34:00,68.0,67.0,29.83,SSE,166,10.0,18.0,97,0.01,,,-99.99,,2013-06-30 22:34:00,
2013-06-30 18:43:00,68.0,67.0,29.83,SSE,166,10.0,18.0,97,0.01,,,-99.99,,2013-06-30 22:43:00,
2013-06-30 18:53:00,68.0,67.0,29.83,SSE,166,10.0,18.0,97,0.01,,,-99.99,,2013-06-30 22:53:00,
2013-06-30 19:00:00,68.0,67.0,29.83,South,177,14.0,14.0,97,0.00,,,-99.99,,2013-06-30 23:00:00,
2013-06-30 19:33:00,68.0,67.0,29.83,South,177,14.0,14.0,97,0.00,,,-99.99,,2013-06-30 23:33:00,
2013-06-30 19:44:00,68.0,67.0,29.83,South,177,14.0,14.0,97,0.00,,,-99.99,,2013-06-30 23:44:00,
2013-06-30 19:53:00,68.0,67.0,29.83,South,177,14.0,14.0,97,0.00,,,-99.99,,2013-06-30 23:53:00,
2013-06-30 20:00:00,67.0,66.0,29.85,South,173,6.0,14.0,98,0.00,,,-99.99,,2013-07-01 00:00:00,
2013-06-30 20:33:00,67.0,66.0,29.85,South,173,6.0,14.0,98,0.00,,,-99.99,,2013-07-01 00:33:00,
2013-06-30 20:42:00,67.0,66.0,29.85,South,173,6.0,14.0,98,0.00,,,-99.99,,2013-07-01 00:42:00,
2013-06-30 20:52:00,67.0,66.0,29.85,South,173,6.0,14.0,98,0.00,,,-99.99,,2013-07-01 00:52:00,
2013-06-30 21:00:00,68.0,67.0,29.88,SSE,163,10.0,-999.0,98,-99.99,,,-99.99,,2013-07-01 01:00:00,
2013-06-30 21:34:00,68.0,67.0,29.88,SSE,163,10.0,-999.0,98,-99.99,,,-99.99,,2013-07-01 01:34:00,
2013-06-30 21:43:00,68.0,67.0,29.88,SSE,163,10.0,-999.0,98,-99.99,,,-99.99,,2013-07-01 01:43:00,
2013-06-30 21:52:00,68.0,67.0,29.88,SSE,163,10.0,-999.0,98,-99.99,,,-99.99,,2013-07-01 01:52:00,
2013-06-30 22:00:00,69.0,68.0,29.88,SSE,165,9.0,15.0,98,0.00,,,-99.99,,2013-07-01 02:00:00,
2013-06-30 22:33:00,69.0,68.0,29.88,SSE,165,9.0,15.0,98,0.00,,,-99.99,,2013-07-01 02:33:00,
2013-06-30 22:44:00,69.0,68.0,29.88,SSE,165,9.0,15.0,98,0.00,,,-99.99,,2013-07-01 02:44:00,
2013-06-30 22:54:00,69.0,68.0,29.88,SSE,165,9.0,15.0,98,0.00,,,-99.99,,2013-07-01 02:54:00,
2013-06-30 23:00:00,69.0,68.0,29.88,South,187,7.0,18.0,97,0.00,,,-99.99,,2013-07-01 03:00:00,
2013-06-30 23:33:00,69.0,68.0,29.88,South,187,7.0,18.0,97,0.00,,,-99.99,,2013-07-01 03:33:00,
2013-06-30 23:43:00,69.0,68.0,29.88,South,187,7.0,18.0,97,0.00,,,-99.99,,2013-07-01 03:43:00,
2013-06-30 23:52:00,69.0,68.0,29.88,South,187,7.0,18.0,97,0.00,,,-99.99,,2013-07-01 03:52:00,